Главная страница
METAR-TAF:

METAR-TAF

Аэропорты :

Острова Яп, Микронезия

Яп

широта: 09-29N, долгота: 138-05E, высота над уровнем моря: 28 м

Текущие метеонаблюдения

Эта сводка был подготовлена 1 час и 51 минут назад, в 19:52 UTC
Ветер 5 Узел переменных направлений
Температура 27°C
Влажность 84%
Давление 1008 hPa
Видимость: 19.3 км
Отдельные облака на высоте 1600 фута
Рассеянная облачность на высоте 30000 фута

METAR: PTYA 251952Z VRB05KT 12SM SCT016 BKN300 27/24 A2976 RMK SLP078 T02710243

Время: 07:43 (21:43 UTC)

Прогноз

Эта сводка был подготовлена 4 часа и 1 минут назад, в 17:42 UTC
Прогноз действительный с 25-го 18 UTC до 26-го 18 UTC
Ветер 6 Узел от северо-восточный
Видимость: 10 км
Отдельные облака на высоте 1600 фута

TAF: PTYA 251742Z 2518/2618 05006KT P6SM SCT016

Метеонаблюдения и прогнозы для более 4000 аэропортов (сводки METAR и TAF).

Имеющиеся станции представлены на карте желтыми и красными точками.

Чтобы увидеть название станции, наведите на нее мышь.

Затем щелкните, чтобы увидеть метеонаблюдения и метеопрогнозы.

Управление картой: чтобы увеличить масштаб, щелкните зеленые кнопки с черным крестиком; чтобы уменьшить масштаб, щелкните зеленую кнопку с тире; для просмотра соседних карт щелкайте зеленые стрелки.


METAR-TAF: